createdAt,value
2018-06-16T00:02:59.894Z,101451.61
2018-06-16T00:05:28.336Z,101450.72
2018-06-16T00:07:56.928Z,101447.59
2018-06-16T00:10:25.361Z,101447.59
2018-06-16T00:12:53.883Z,101450.29
2018-06-16T00:15:22.372Z,101452.53
2018-06-16T00:17:50.836Z,101460.45
2018-06-16T00:20:19.336Z,101451.61
2018-06-16T00:22:47.852Z,101451.66
2018-06-16T00:25:16.282Z,101446.89
2018-06-16T00:27:44.780Z,101448.27
2018-06-16T00:30:13.198Z,101450.07
2018-06-16T00:32:41.720Z,101446.11
2018-06-16T00:35:10.220Z,101445.70
2018-06-16T00:37:38.800Z,101445.73
2018-06-16T00:40:07.294Z,101447.02
2018-06-16T00:42:35.853Z,101439.48
2018-06-16T00:45:04.809Z,101444.34
2018-06-16T00:47:33.340Z,101438.12
2018-06-16T00:50:02.035Z,101434.09
2018-06-16T00:52:30.565Z,101430.58
2018-06-16T00:54:59.084Z,101437.20
2018-06-16T00:57:38.940Z,101436.29
2018-06-16T01:00:07.375Z,101433.59
2018-06-16T01:02:35.914Z,101435.38
2018-06-16T01:05:04.446Z,101441.14
2018-06-16T01:07:33.745Z,101440.70
2018-06-16T01:10:02.186Z,101438.94
2018-06-16T01:12:30.764Z,101436.73
2018-06-16T01:14:59.246Z,101438.51
2018-06-16T01:17:27.716Z,101438.51
2018-06-16T01:19:56.243Z,101438.09
2018-06-16T01:22:24.731Z,101441.64
2018-06-16T01:25:05.871Z,101432.77
2018-06-16T01:27:34.317Z,101432.38
2018-06-16T01:30:02.758Z,101439.05
2018-06-16T01:32:31.200Z,101435.50
2018-06-16T01:34:59.682Z,101429.77
2018-06-16T01:37:28.188Z,101436.00
2018-06-16T01:39:56.875Z,101432.02
2018-06-16T01:42:25.321Z,101439.11
2018-06-16T01:44:53.807Z,101432.89
2018-06-16T01:47:22.215Z,101429.34
2018-06-16T01:49:50.789Z,101436.41
2018-06-16T01:52:19.262Z,101432.41
2018-06-16T01:54:47.749Z,101436.83
2018-06-16T01:57:16.216Z,101438.61
2018-06-16T01:59:44.694Z,101438.16
2018-06-16T02:02:20.863Z,101437.28
2018-06-16T02:04:49.353Z,101434.16
2018-06-16T02:07:36.297Z,101435.01
2018-06-16T02:10:23.934Z,101439.42
2018-06-16T02:13:09.885Z,101434.53
2018-06-16T02:15:38.381Z,101433.30
2018-06-16T02:18:06.865Z,101428.82
2018-06-16T02:20:35.523Z,101428.11
2018-06-16T02:23:03.997Z,101432.58
2018-06-16T02:25:32.734Z,101433.14
2018-06-16T02:28:01.301Z,101436.36
2018-06-16T02:30:29.721Z,101429.35
2018-06-16T02:32:58.264Z,101424.52
2018-06-16T02:35:27.149Z,101426.34
2018-06-16T02:37:56.211Z,101421.94
2018-06-16T02:40:25.381Z,101424.16
2018-06-16T02:42:54.324Z,101426.76
2018-06-16T02:45:22.818Z,101422.33
2018-06-16T02:47:51.301Z,101424.56
2018-06-16T02:50:51.129Z,101421.42
2018-06-16T02:53:19.675Z,101422.72
2018-06-16T02:55:48.293Z,101422.67
2018-06-16T02:58:16.762Z,101421.31
2018-06-16T03:00:45.236Z,101421.27
2018-06-16T03:03:13.804Z,101427.88
2018-06-16T03:05:42.197Z,101430.11
2018-06-16T03:08:10.739Z,101428.73
2018-06-16T03:10:39.289Z,101429.17
2018-06-16T03:13:08.609Z,101430.13
2018-06-16T03:15:37.272Z,101424.42
2018-06-16T03:18:05.858Z,101420.44
2018-06-16T03:20:34.386Z,101423.53
2018-06-16T03:23:02.922Z,101431.91
2018-06-16T03:25:31.566Z,101427.04
2018-06-16T03:28:00.001Z,101435.02
2018-06-16T03:30:28.473Z,101428.35
2018-06-16T03:32:57.075Z,101427.95
2018-06-16T03:35:25.638Z,101435.02
2018-06-16T03:38:11.933Z,101427.96
2018-06-16T03:40:40.421Z,101436.38
2018-06-16T03:43:10.424Z,101426.20
2018-06-16T03:45:38.906Z,101428.44
2018-06-16T03:48:07.337Z,101420.91
2018-06-16T03:50:35.932Z,101427.10
2018-06-16T03:53:04.503Z,101425.34
2018-06-16T03:55:32.933Z,101424.00
2018-06-16T03:58:01.432Z,101424.88
2018-06-16T04:00:29.905Z,101418.27
2018-06-16T04:02:58.396Z,101417.84
2018-06-16T04:05:26.889Z,101415.66
2018-06-16T04:07:55.372Z,101414.34
2018-06-16T04:10:23.824Z,101417.45
2018-06-16T04:12:52.308Z,101415.27
2018-06-16T04:15:20.787Z,101417.92
2018-06-16T04:17:49.339Z,101413.94
2018-06-16T04:20:17.773Z,101415.23
2018-06-16T04:22:46.232Z,101416.11
2018-06-16T04:25:14.732Z,101420.98
2018-06-16T04:27:43.294Z,101419.23
2018-06-16T04:30:11.784Z,101419.22
2018-06-16T04:32:40.201Z,101418.36
2018-06-16T04:35:08.757Z,101421.91
2018-06-16T04:37:37.182Z,101424.59
2018-06-16T04:40:14.650Z,101417.05
2018-06-16T04:42:43.118Z,101418.83
2018-06-16T04:45:11.565Z,101418.83
2018-06-16T04:47:40.068Z,101421.47
2018-06-16T04:50:08.513Z,101425.01
2018-06-16T04:52:37.009Z,101429.45
2018-06-16T04:55:05.507Z,101429.02
2018-06-16T04:57:34.075Z,101429.52
2018-06-16T05:00:02.508Z,101432.67
2018-06-16T05:02:31.038Z,101434.95
2018-06-16T05:04:59.549Z,101441.67
2018-06-16T05:11:15.704Z,101443.68
2018-06-16T05:13:44.188Z,101450.41
2018-06-16T05:16:12.728Z,101442.98
2018-06-16T05:18:41.210Z,101443.48
2018-06-16T05:21:09.677Z,101451.96
2018-06-16T05:23:38.166Z,101449.78
2018-06-16T05:26:06.669Z,101453.78
2018-06-16T05:28:35.140Z,101456.44
2018-06-16T05:31:03.618Z,101456.47
2018-06-16T05:33:32.138Z,101464.00
2018-06-16T05:36:00.584Z,101471.11
2018-06-16T05:38:29.120Z,101472.44
2018-06-16T05:40:57.585Z,101470.27
2018-06-16T05:43:26.041Z,101472.06
2018-06-16T05:45:54.607Z,101471.24
2018-06-16T05:48:23.097Z,101465.95
2018-06-16T05:50:51.688Z,101462.41
2018-06-16T05:53:20.256Z,101469.05
2018-06-16T05:56:16.056Z,101474.80
2018-06-16T05:58:44.551Z,101471.73
2018-06-16T06:01:13.099Z,101472.62
2018-06-16T06:03:41.639Z,101467.75
2018-06-16T06:06:10.125Z,101463.79
2018-06-16T06:08:38.576Z,101467.42
2018-06-16T06:11:07.014Z,101459.47
2018-06-16T06:13:35.560Z,101457.26
2018-06-16T06:16:04.057Z,101461.72
2018-06-16T06:18:39.797Z,101460.40
2018-06-16T06:21:08.368Z,101463.97
2018-06-16T06:23:36.852Z,101463.97
2018-06-16T06:26:05.450Z,101467.98
2018-06-16T06:28:33.937Z,101470.20
2018-06-16T06:31:02.361Z,101476.42
2018-06-16T06:33:30.809Z,101483.08
2018-06-16T06:35:59.321Z,101474.64
2018-06-16T06:38:27.841Z,101477.31
2018-06-16T06:40:56.313Z,101473.77
2018-06-16T06:43:24.819Z,101469.39
2018-06-16T06:45:54.431Z,101472.07
2018-06-16T06:48:23.012Z,101464.53
2018-06-16T06:50:51.500Z,101468.10
2018-06-16T06:53:19.972Z,101474.80
2018-06-16T06:55:48.385Z,101478.36
2018-06-16T06:58:16.937Z,101484.14
2018-06-16T07:00:45.461Z,101479.70
2018-06-16T07:03:14.010Z,101477.03
2018-06-16T07:05:50.174Z,101477.92
2018-06-16T07:08:18.675Z,101476.58
2018-06-16T07:10:47.299Z,101479.69
2018-06-16T07:13:15.581Z,101477.89
2018-06-16T07:15:44.107Z,101477.00
2018-06-16T07:18:12.564Z,101474.77
2018-06-16T07:20:54.491Z,101479.20
2018-06-16T07:23:23.066Z,101484.51
2018-06-16T07:25:51.536Z,101480.55
2018-06-16T07:28:20.018Z,101479.18
2018-06-16T07:30:48.501Z,101470.25
2018-06-16T07:33:38.374Z,101467.11
2018-06-16T07:36:06.821Z,101467.52
2018-06-16T07:38:35.249Z,101465.29
2018-06-16T07:41:03.838Z,101461.73
2018-06-16T07:43:32.313Z,101459.03
2018-06-16T07:46:00.788Z,101457.69
2018-06-16T07:48:29.681Z,101458.09
2018-06-16T07:50:58.524Z,101464.28
2018-06-16T07:53:26.980Z,101464.70
2018-06-16T07:55:55.524Z,101465.97
2018-06-16T07:58:24.586Z,101462.34
2018-06-16T08:01:33.645Z,101464.02
2018-06-16T08:04:02.156Z,101465.74
2018-06-16T08:06:30.727Z,101462.06
2018-06-16T08:08:59.228Z,101459.27
2018-06-16T08:11:27.812Z,101457.83
2018-06-16T08:13:56.316Z,101463.13
2018-06-16T08:16:24.768Z,101458.53
2018-06-16T08:18:53.237Z,101447.33
2018-06-16T08:21:21.725Z,101450.94
2018-06-16T08:23:50.248Z,101454.10
2018-06-16T08:26:18.791Z,101454.05
2018-06-16T08:28:47.261Z,101454.02
2018-06-16T08:31:15.754Z,101459.30
2018-06-16T08:33:44.234Z,101453.88
2018-06-16T08:36:12.838Z,101454.30
2018-06-16T08:38:41.405Z,101454.70
2018-06-16T08:41:09.881Z,101458.38
2018-06-16T08:43:38.482Z,101459.69
2018-06-16T08:46:06.960Z,101454.17
2018-06-16T08:48:35.490Z,101450.95
2018-06-16T08:51:03.941Z,101447.74
2018-06-16T08:53:32.536Z,101444.61
2018-06-16T08:56:01.084Z,101446.73
2018-06-16T08:58:29.755Z,101441.32
2018-06-16T09:00:58.294Z,101443.98
2018-06-16T09:03:26.764Z,101444.31
2018-06-16T09:05:55.615Z,101444.53
2018-06-16T09:08:24.062Z,101436.28
2018-06-16T09:10:52.598Z,101442.24
2018-06-16T09:13:21.157Z,101439.82
2018-06-16T09:15:49.665Z,101441.19
2018-06-16T09:18:18.195Z,101443.29
2018-06-16T09:20:46.735Z,101434.63
2018-06-16T09:23:15.305Z,101435.99
2018-06-16T09:25:57.799Z,101434.66
2018-06-16T09:28:26.297Z,101437.26
2018-06-16T09:30:54.848Z,101434.47
2018-06-16T09:33:24.263Z,101426.28
2018-06-16T09:35:52.776Z,101425.28
2018-06-16T09:38:21.331Z,101427.86
2018-06-16T09:40:49.819Z,101427.66
2018-06-16T09:43:18.449Z,101429.16
2018-06-16T09:45:46.881Z,101432.24
2018-06-16T09:48:15.385Z,101427.33
2018-06-16T09:50:43.870Z,101439.16
2018-06-16T09:53:12.421Z,101431.28
2018-06-16T09:55:41.017Z,101439.80
2018-06-16T09:58:09.505Z,101434.47
2018-06-16T10:00:46.313Z,101433.73
2018-06-16T10:03:14.772Z,101432.20
2018-06-16T10:05:43.338Z,101440.11
2018-06-16T10:08:11.796Z,101440.07
2018-06-16T10:10:41.317Z,101437.61
2018-06-16T10:13:09.741Z,101433.16
2018-06-16T10:15:38.325Z,101435.00
2018-06-16T10:18:06.885Z,101442.22
2018-06-16T10:20:35.332Z,101446.43
2018-06-16T10:23:03.860Z,101444.28
2018-06-16T10:25:32.314Z,101444.73
2018-06-16T10:28:03.264Z,101440.83
2018-06-16T10:30:31.744Z,101441.64
2018-06-16T10:33:00.723Z,101441.42
2018-06-16T10:35:29.162Z,101435.05
2018-06-16T10:37:57.737Z,101432.83
2018-06-16T10:40:26.799Z,101435.69
2018-06-16T10:42:55.608Z,101430.33
2018-06-16T10:45:24.078Z,101440.51
2018-06-16T10:47:52.755Z,101452.00
2018-06-16T10:50:21.334Z,101445.05
2018-06-16T10:52:50.027Z,101442.47
2018-06-16T10:55:18.502Z,101445.11
2018-06-16T10:57:47.096Z,101449.28
2018-06-16T11:00:15.568Z,101452.39
2018-06-16T11:02:44.058Z,101451.53
2018-06-16T11:05:12.621Z,101447.41
2018-06-16T11:07:41.217Z,101448.18
2018-06-16T11:10:09.714Z,101435.50
2018-06-16T11:12:38.212Z,101434.27
2018-06-16T11:15:06.821Z,101437.47
2018-06-16T11:17:35.378Z,101437.55
2018-06-16T11:20:04.555Z,101437.09
2018-06-16T11:22:33.040Z,101433.59
2018-06-16T11:25:01.473Z,101430.14
2018-06-16T11:27:53.936Z,101425.89
2018-06-16T11:30:22.411Z,101423.00
2018-06-16T11:32:50.957Z,101408.47
2018-06-16T11:35:19.471Z,101405.24
2018-06-16T11:37:47.972Z,101401.34
2018-06-16T11:40:16.425Z,101405.56
2018-06-16T11:42:44.876Z,101399.43
2018-06-16T11:45:26.632Z,101398.16
2018-06-16T11:47:55.217Z,101398.66
2018-06-16T11:50:23.751Z,101385.46
2018-06-16T11:52:52.367Z,101389.34
2018-06-16T11:55:20.872Z,101378.32
2018-06-16T11:57:49.333Z,101378.26
2018-06-16T12:00:17.781Z,101373.48
2018-06-16T12:02:46.269Z,101380.23
2018-06-16T12:05:14.706Z,101374.30
2018-06-16T12:07:43.269Z,101374.61
2018-06-16T12:10:11.799Z,101365.22
2018-06-16T12:12:40.332Z,101361.49
2018-06-16T12:15:08.808Z,101351.18
2018-06-16T12:17:38.411Z,101345.95
2018-06-16T12:20:06.890Z,101341.70
2018-06-16T12:22:35.382Z,101331.62
2018-06-16T12:25:04.006Z,101321.55
2018-06-16T12:27:32.451Z,101323.83
2018-06-16T12:30:01.231Z,101314.11
2018-06-16T12:32:29.693Z,101308.91
2018-06-16T12:34:58.198Z,101316.88
2018-06-16T12:37:26.745Z,101308.42
2018-06-16T12:39:55.186Z,101302.80
2018-06-16T12:42:23.811Z,101303.89
2018-06-16T12:44:52.328Z,101294.19
2018-06-16T12:47:20.912Z,101290.81
2018-06-16T12:49:53.225Z,101290.86
2018-06-16T12:52:21.777Z,101290.61
2018-06-16T12:54:50.249Z,101278.42
2018-06-16T12:57:18.817Z,101275.25
2018-06-16T12:59:47.303Z,101280.89
2018-06-16T13:02:15.725Z,101278.22
2018-06-16T13:04:44.372Z,101273.94
2018-06-16T13:07:13.575Z,101276.25
2018-06-16T13:09:42.128Z,101283.84
2018-06-16T13:12:10.580Z,101292.31
2018-06-16T13:14:39.026Z,101284.48
2018-06-16T13:17:07.638Z,101283.67
2018-06-16T13:19:36.507Z,101281.92
2018-06-16T13:22:05.288Z,101277.05
2018-06-16T13:24:33.947Z,101272.81
2018-06-16T13:27:02.536Z,101280.16
2018-06-16T13:29:31.073Z,101269.62
2018-06-16T13:31:59.672Z,101267.96
2018-06-16T13:34:28.243Z,101271.05
2018-06-16T13:36:56.732Z,101264.19
2018-06-16T13:39:25.160Z,101261.70
2018-06-16T13:41:53.829Z,101262.35
2018-06-16T13:44:22.665Z,101259.55
2018-06-16T13:46:51.205Z,101257.31
2018-06-16T13:49:20.310Z,101252.28
2018-06-16T13:51:48.886Z,101260.00
2018-06-16T13:54:17.458Z,101260.94
2018-06-16T13:56:46.256Z,101255.25
2018-06-16T13:59:14.772Z,101263.83
2018-06-16T14:01:43.215Z,101258.95
2018-06-16T14:04:11.697Z,101258.27
2018-06-16T14:06:40.251Z,101256.52
2018-06-16T14:09:09.989Z,101263.56
2018-06-16T14:11:38.413Z,101259.91
2018-06-16T14:14:07.142Z,101254.45
2018-06-16T14:16:35.642Z,101253.34
2018-06-16T14:19:04.094Z,101255.44
2018-06-16T14:21:32.598Z,101253.72
2018-06-16T14:24:01.018Z,101252.83
2018-06-16T14:26:29.771Z,101258.09
2018-06-16T14:28:58.261Z,101247.42
2018-06-16T14:32:10.253Z,101239.14
2018-06-16T14:34:39.443Z,101248.94
2018-06-16T14:37:17.784Z,101246.50
2018-06-16T14:39:46.281Z,101242.14
2018-06-16T14:42:14.829Z,101252.02
2018-06-16T14:44:43.341Z,101245.37
2018-06-16T14:47:11.948Z,101254.16
2018-06-16T14:49:40.473Z,101244.59
2018-06-16T14:52:08.957Z,101253.77
2018-06-16T14:54:38.356Z,101246.25
2018-06-16T14:57:06.874Z,101243.75
2018-06-16T14:59:35.467Z,101240.47
2018-06-16T15:02:04.320Z,101234.60
2018-06-16T15:04:32.912Z,101239.98
2018-06-16T15:07:01.717Z,101240.25
2018-06-16T15:09:31.372Z,101234.33
2018-06-16T15:11:59.861Z,101237.23
2018-06-16T15:14:28.350Z,101237.34
2018-06-16T15:16:56.874Z,101234.41
2018-06-16T15:19:25.478Z,101221.45
2018-06-16T15:21:54.080Z,101231.44
2018-06-16T15:24:22.656Z,101235.90
2018-06-16T15:26:51.415Z,101239.38
2018-06-16T15:29:19.856Z,101247.52
2018-06-16T15:31:48.514Z,101245.67
2018-06-16T15:34:17.012Z,101253.08
2018-06-16T15:36:46.643Z,101257.91
2018-06-16T15:39:15.161Z,101251.22
2018-06-16T15:41:43.605Z,101253.52
2018-06-16T15:44:12.034Z,101256.84
2018-06-16T15:46:40.512Z,101253.16
2018-06-16T15:49:09.048Z,101252.16
2018-06-16T15:51:37.532Z,101253.40
2018-06-16T15:54:06.009Z,101262.30
2018-06-16T15:56:34.502Z,101265.39
2018-06-16T15:59:03.032Z,101269.98
2018-06-16T16:01:31.568Z,101282.91
2018-06-16T16:04:00.037Z,101285.54
2018-06-16T16:06:28.484Z,101296.23
2018-06-16T16:08:57.109Z,101293.91
2018-06-16T16:11:25.549Z,101288.45
2018-06-16T16:13:54.483Z,101292.11
2018-06-16T16:16:26.575Z,101293.03
2018-06-16T16:18:55.066Z,101291.75
2018-06-16T16:21:23.592Z,101295.77
2018-06-16T16:23:52.022Z,101295.32
2018-06-16T16:26:20.578Z,101297.55
2018-06-16T16:28:51.368Z,101296.69
2018-06-16T16:31:21.566Z,101299.40
2018-06-16T16:33:50.368Z,101290.48
2018-06-16T16:36:18.917Z,101285.50
2018-06-16T16:38:47.367Z,101291.63
2018-06-16T16:41:15.871Z,101290.58
2018-06-16T16:43:44.413Z,101281.84
2018-06-16T16:46:12.892Z,101285.93
2018-06-16T16:48:41.323Z,101284.38
2018-06-16T16:51:09.892Z,101284.66
2018-06-16T16:53:38.342Z,101283.67
2018-06-16T16:56:06.786Z,101278.24
2018-06-16T16:58:35.387Z,101289.45
2018-06-16T17:01:03.961Z,101290.02
2018-06-16T17:03:32.431Z,101287.88
2018-06-16T17:06:00.985Z,101291.96
2018-06-16T17:08:29.447Z,101299.09
2018-06-16T17:10:57.934Z,101289.23
2018-06-16T17:13:26.422Z,101299.00
2018-06-16T17:15:54.909Z,101295.89
2018-06-16T17:18:23.373Z,101303.04
2018-06-16T17:20:51.863Z,101308.03
2018-06-16T17:23:23.046Z,101307.66
2018-06-16T17:25:51.534Z,101309.94
2018-06-16T17:28:20.094Z,101308.62
2018-06-16T17:30:48.673Z,101304.61
2018-06-16T17:33:17.193Z,101317.97
2018-06-16T17:35:45.843Z,101315.27
2018-06-16T17:38:37.794Z,101319.64
2018-06-16T17:41:06.402Z,101325.86
2018-06-16T17:43:44.672Z,101319.62
2018-06-16T17:46:13.340Z,101322.80
2018-06-16T17:48:41.758Z,101324.68
2018-06-16T17:51:10.345Z,101325.20
2018-06-16T17:53:38.895Z,101328.87
2018-06-16T17:56:07.581Z,101332.13
2018-06-16T17:58:36.073Z,101341.57
2018-06-16T18:01:04.681Z,101338.93
2018-06-16T18:03:34.258Z,101341.66
2018-06-16T18:06:02.800Z,101337.16
2018-06-16T18:08:31.357Z,101338.90
2018-06-16T18:10:59.892Z,101332.16
2018-06-16T18:13:28.405Z,101332.03
2018-06-16T18:15:57.272Z,101333.75
2018-06-16T18:18:25.717Z,101333.66
2018-06-16T18:20:54.638Z,101334.11
2018-06-16T18:23:23.234Z,101335.00
2018-06-16T18:25:51.673Z,101339.52
2018-06-16T18:28:20.192Z,101348.53
2018-06-16T18:30:48.666Z,101338.36
2018-06-16T18:33:17.161Z,101345.98
2018-06-16T18:35:45.726Z,101346.45
2018-06-16T18:38:14.165Z,101353.16
2018-06-16T18:40:42.775Z,101350.97
2018-06-16T18:43:13.179Z,101362.59
2018-06-16T18:45:44.061Z,101357.33
2018-06-16T18:48:15.969Z,101360.13
2018-06-16T18:50:44.664Z,101361.56
2018-06-16T18:53:13.125Z,101363.41
2018-06-16T18:55:41.578Z,101369.29
2018-06-16T18:58:10.140Z,101375.59
2018-06-16T19:00:42.972Z,101382.78
2018-06-16T19:03:13.067Z,101380.13
2018-06-16T19:05:41.561Z,101378.38
2018-06-16T19:08:10.124Z,101373.06
2018-06-16T19:11:22.094Z,101377.98
2018-06-16T19:13:50.624Z,101390.47
2018-06-16T19:16:19.161Z,101374.46
2018-06-16T19:18:47.713Z,101382.05
2018-06-16T19:21:21.572Z,101379.39
2018-06-16T19:23:50.274Z,101388.31
2018-06-16T19:26:18.772Z,101384.34
2018-06-16T19:28:47.205Z,101392.41
2018-06-16T19:31:18.085Z,101397.33
2018-06-16T19:34:12.294Z,101401.30
2018-06-16T19:47:01.599Z,101412.52
2018-06-16T19:49:30.178Z,101409.84
2018-06-16T19:52:11.705Z,101413.85
2018-06-16T19:54:40.609Z,101422.75
2018-06-16T19:57:09.550Z,101430.76
2018-06-16T19:59:38.166Z,101436.55
2018-06-16T20:02:07.095Z,101440.11
2018-06-16T20:04:35.772Z,101443.67
2018-06-16T20:07:19.767Z,101448.57
2018-06-16T20:09:48.256Z,101452.58
2018-06-16T20:12:16.863Z,101453.91
2018-06-16T20:14:45.327Z,101449.91
2018-06-16T20:17:14.091Z,101451.69
2018-06-16T20:19:42.634Z,101445.91
2018-06-16T20:22:11.179Z,101453.91
2018-06-16T20:24:39.782Z,101459.69
2018-06-16T20:27:08.542Z,101453.03
2018-06-16T20:29:37.192Z,101464.59
2018-06-16T20:32:05.912Z,101470.37
2018-06-16T20:34:34.521Z,101471.70
2018-06-16T20:37:03.149Z,101469.03
2018-06-16T20:39:31.614Z,101470.80
2018-06-16T20:42:00.168Z,101465.44
2018-06-16T20:44:28.874Z,101464.98
2018-06-16T20:47:06.965Z,101467.20
2018-06-16T20:49:35.433Z,101471.63
2018-06-16T20:52:04.059Z,101471.56
2018-06-16T20:54:32.595Z,101471.55
2018-06-16T20:57:01.069Z,101472.42
2018-06-16T20:59:29.529Z,101467.97
2018-06-16T21:01:58.025Z,101466.19
2018-06-16T21:04:26.526Z,101466.59
2018-06-16T21:06:55.135Z,101463.91
2018-06-16T21:09:23.694Z,101470.09
2018-06-16T21:11:52.285Z,101467.39
2018-06-16T21:14:20.850Z,101468.22
2018-06-16T21:16:49.358Z,101474.84
2018-06-16T21:19:17.836Z,101468.11
2018-06-16T21:21:46.431Z,101470.30
2018-06-16T21:24:14.993Z,101468.47
2018-06-16T21:26:43.471Z,101467.50
2018-06-16T21:29:11.986Z,101475.42
2018-06-16T21:31:40.529Z,101472.69
2018-06-16T21:34:08.966Z,101476.11
2018-06-16T21:36:37.524Z,101478.70
2018-06-16T21:39:07.644Z,101481.29
2018-06-16T21:41:36.222Z,101471.42
2018-06-16T21:44:04.811Z,101467.34
2018-06-16T21:46:33.314Z,101474.78
2018-06-16T21:49:02.498Z,101470.73
2018-06-16T21:51:31.156Z,101472.00
2018-06-16T21:53:59.845Z,101477.27
2018-06-16T21:56:28.420Z,101483.83
2018-06-16T21:58:57.011Z,101483.33
2018-06-16T22:01:31.767Z,101481.05
2018-06-16T22:04:00.646Z,101484.92
2018-06-16T22:06:29.156Z,101484.41
2018-06-16T22:08:58.429Z,101482.53
2018-06-16T22:11:27.085Z,101486.85
2018-06-16T22:13:55.564Z,101486.77
2018-06-16T22:16:24.070Z,101489.82
2018-06-16T22:18:52.703Z,101486.22
2018-06-16T22:21:22.158Z,101487.43
2018-06-16T22:23:50.618Z,101483.30
2018-06-16T22:26:19.112Z,101489.89
2018-06-16T22:28:47.631Z,101498.28
2018-06-16T22:31:16.649Z,101491.63
2018-06-16T22:33:45.178Z,101487.61
2018-06-16T22:36:13.806Z,101494.56
2018-06-16T22:39:16.923Z,101490.53
2018-06-16T22:41:45.773Z,101494.22
2018-06-16T22:44:14.336Z,101497.00
2018-06-16T22:46:42.896Z,101499.90
2018-06-16T22:49:11.384Z,101496.12
2018-06-16T22:51:40.762Z,101494.00
2018-06-16T22:54:09.732Z,101491.48
2018-06-16T22:56:38.193Z,101491.50
2018-06-16T22:59:06.673Z,101491.00
2018-06-16T23:01:35.283Z,101497.14
2018-06-16T23:04:03.829Z,101490.98
2018-06-16T23:06:32.499Z,101492.75
2018-06-16T23:09:01.009Z,101491.80
2018-06-16T23:11:29.558Z,101490.43
2018-06-16T23:13:58.034Z,101489.07
2018-06-16T23:16:26.523Z,101488.98
2018-06-16T23:18:55.369Z,101498.27
2018-06-16T23:21:23.905Z,101500.81
2018-06-16T23:23:52.420Z,101496.76
2018-06-16T23:26:25.681Z,101500.69
2018-06-16T23:28:54.148Z,101499.78
2018-06-16T23:31:22.817Z,101496.61
2018-06-16T23:33:51.254Z,101502.78
2018-06-16T23:36:19.716Z,101498.78
2018-06-16T23:38:48.177Z,101504.45
2018-06-16T23:41:16.673Z,101505.28
2018-06-16T23:43:45.215Z,101514.06
2018-06-16T23:46:13.837Z,101512.69
2018-06-16T23:48:42.261Z,101506.97
2018-06-16T23:51:10.704Z,101514.97
2018-06-16T23:53:39.174Z,101516.39
2018-06-16T23:56:07.718Z,101513.73
2018-06-16T23:58:37.161Z,101509.39
